Time;durP1;ratioP1;P1;durP2;ratioP2;P2;SDS_P1;SDS_P2;PMS_P1;PMS_P2;Temp;Humidity;BMP_temperature;BMP_pressure;BME280_temperature;BME280_humidity;BME280_pressure;Samples;Min_cycle;Max_cycle;Signal;HPM_P1;HPM_P2
2022/08/17 00:01:36;;;;;;;6.20;5.80;;;29.60;57.00;;;;;;5046099;28;20503;-71
2022/08/17 00:04:20;;;;;;;6.00;5.50;;;29.50;57.00;;;;;;5053540;28;20479;-71
2022/08/17 00:06:49;;;;;;;5.70;5.30;;;29.60;57.00;;;;;;5047119;28;20491;-71
2022/08/17 00:09:19;;;;;;;5.97;5.23;;;29.50;57.00;;;;;;5051420;28;20574;-70
2022/08/17 00:11:49;;;;;;;6.33;5.90;;;29.50;56.90;;;;;;5045390;28;20482;-71
2022/08/17 00:14:37;;;;;;;5.53;5.20;;;29.50;56.90;;;;;;5034600;28;20539;-71
2022/08/17 00:17:05;;;;;;;5.73;5.33;;;29.50;56.90;;;;;;5044239;28;21006;-71
2022/08/17 00:19:34;;;;;;;6.10;5.70;;;29.50;56.90;;;;;;5045058;28;20519;-72
2022/08/17 00:22:05;;;;;;;5.33;5.03;;;29.50;56.90;;;;;;5044411;28;20513;-71
2022/08/17 00:24:54;;;;;;;6.30;5.77;;;29.50;56.80;;;;;;5046906;28;20455;-70
2022/08/17 00:27:23;;;;;;;5.67;5.27;;;29.50;56.90;;;;;;5037572;28;20856;-70
2022/08/17 00:29:51;;;;;;;5.77;5.37;;;29.50;56.90;;;;;;5039885;28;20477;-70
2022/08/17 00:32:19;;;;;;;6.20;5.70;;;29.50;56.80;;;;;;5043089;28;20527;-71
2022/08/17 00:35:09;;;;;;;6.20;5.53;;;29.50;56.90;;;;;;5057858;28;20444;-70
2022/08/17 00:37:38;;;;;;;5.90;5.47;;;29.50;56.90;;;;;;5051679;28;20933;-72
2022/08/17 00:40:10;;;;;;;5.47;5.17;;;29.50;56.90;;;;;;5049857;28;20537;-77
2022/08/17 00:42:40;;;;;;;5.40;5.07;;;29.40;56.90;;;;;;5034020;28;20921;-70
2022/08/17 00:45:11;;;;;;;5.57;5.17;;;29.40;56.80;;;;;;5035136;28;20444;-73
2022/08/17 00:47:40;;;;;;;5.93;5.50;;;29.40;56.80;;;;;;5039735;28;20560;-74
2022/08/17 00:50:12;;;;;;;5.97;5.57;;;29.40;56.80;;;;;;5052629;28;20470;-71
2022/08/17 00:52:46;;;;;;;5.23;4.93;;;29.40;56.80;;;;;;5047018;28;20537;-71
2022/08/17 00:55:17;;;;;;;5.07;4.67;;;29.40;56.80;;;;;;5038743;28;20443;-70
2022/08/17 00:57:47;;;;;;;5.70;5.20;;;29.40;56.80;;;;;;5051998;28;20469;-70
2022/08/17 01:00:25;;;;;;;6.27;5.87;;;29.40;56.90;;;;;;5042861;28;20494;-71
2022/08/17 01:03:08;;;;;;;5.57;5.07;;;29.40;56.90;;;;;;5047054;28;20489;-70
2022/08/17 01:05:37;;;;;;;5.33;5.00;;;29.40;56.90;;;;;;5052147;28;20507;-71
2022/08/17 01:08:12;;;;;;;5.20;4.80;;;29.40;56.90;;;;;;5043278;28;20434;-73
2022/08/17 01:10:45;;;;;;;5.93;5.60;;;29.40;56.90;;;;;;5048704;28;20474;-70
2022/08/17 01:13:35;;;;;;;5.50;5.07;;;29.30;56.90;;;;;;5051847;28;20480;-73
2022/08/17 01:16:15;;;;;;;6.13;5.00;;;29.30;56.90;;;;;;5066512;28;20858;-77
2022/08/17 01:18:45;;;;;;;5.33;4.93;;;29.30;56.90;;;;;;5058114;28;20442;-72
2022/08/17 01:21:23;;;;;;;5.40;5.10;;;29.30;56.90;;;;;;5052094;28;20434;-74
2022/08/17 01:23:53;;;;;;;6.20;5.70;;;29.30;56.90;;;;;;5050150;28;20508;-71
2022/08/17 01:26:22;;;;;;;5.90;5.27;;;29.30;56.90;;;;;;5059447;28;20458;-74
2022/08/17 01:28:51;;;;;;;5.53;5.13;;;29.30;57.10;;;;;;5056291;28;20447;-70
2022/08/17 01:31:24;;;;;;;6.07;5.67;;;29.30;57.10;;;;;;5048131;28;20464;-70
2022/08/17 01:33:52;;;;;;;4.73;4.43;;;29.30;57.10;;;;;;5048107;28;20505;-71
2022/08/17 01:36:21;;;;;;;6.27;5.87;;;29.30;57.10;;;;;;5055486;28;20445;-70
2022/08/17 01:38:49;;;;;;;5.97;5.47;;;29.30;57.10;;;;;;5053591;28;20449;-70
2022/08/17 01:41:21;;;;;;;5.87;5.50;;;29.30;57.10;;;;;;5047371;28;20900;-70
2022/08/17 01:43:54;;;;;;;5.13;4.83;;;29.20;57.10;;;;;;5044162;28;20511;-70
2022/08/17 01:46:26;;;;;;;6.00;5.60;;;29.20;57.10;;;;;;5047628;28;20456;-70
2022/08/17 01:48:56;;;;;;;6.10;5.70;;;29.20;57.10;;;;;;5063773;28;20480;-75
2022/08/17 01:51:29;;;;;;;6.57;5.97;;;29.20;57.10;;;;;;5039265;28;20461;-70
2022/08/17 01:54:00;;;;;;;6.80;6.23;;;29.20;57.10;;;;;;5054425;28;20875;-70
2022/08/17 01:56:31;;;;;;;5.50;5.20;;;29.20;57.10;;;;;;5060763;28;20498;-71
2022/08/17 01:58:59;;;;;;;6.10;5.70;;;29.20;57.10;;;;;;5058332;28;20469;-71
2022/08/17 02:01:30;;;;;;;6.17;5.77;;;29.20;57.10;;;;;;5055664;28;21312;-70
2022/08/17 02:03:59;;;;;;;5.97;5.57;;;29.20;57.10;;;;;;5048886;28;20491;-71
2022/08/17 02:06:30;;;;;;;6.53;6.13;;;29.20;57.10;;;;;;5051279;28;20937;-70
2022/08/17 02:09:13;;;;;;;6.17;5.83;;;29.20;57.10;;;;;;5054593;28;20968;-70
2022/08/17 02:11:46;;;;;;;5.60;5.30;;;29.20;57.10;;;;;;5039735;28;20474;-71
2022/08/17 02:14:14;;;;;;;5.70;5.20;;;29.20;57.10;;;;;;5045322;28;20490;-70
2022/08/17 02:16:42;;;;;;;5.63;5.33;;;29.20;57.10;;;;;;5044718;28;20512;-70
2022/08/17 02:19:14;;;;;;;6.03;5.63;;;29.20;57.10;;;;;;5053181;28;20489;-70
2022/08/17 02:21:45;;;;;;;5.80;5.40;;;29.20;57.10;;;;;;5045238;28;20507;-70
2022/08/17 02:24:18;;;;;;;5.53;5.23;;;29.10;57.10;;;;;;5050134;28;20463;-72
2022/08/17 02:27:08;;;;;;;6.10;5.70;;;29.20;57.10;;;;;;5043783;28;20445;-70
2022/08/17 02:29:37;;;;;;;5.97;5.47;;;29.10;57.10;;;;;;5055261;28;20476;-70
2022/08/17 02:32:06;;;;;;;5.70;5.30;;;29.10;57.10;;;;;;5054499;28;20865;-72
2022/08/17 02:34:34;;;;;;;5.07;4.77;;;29.10;57.10;;;;;;5041206;28;20532;-70
2022/08/17 02:37:02;;;;;;;5.53;5.17;;;29.10;57.10;;;;;;5044565;28;20949;-72
2022/08/17 02:39:30;;;;;;;5.80;5.40;;;29.10;57.10;;;;;;5051906;28;20545;-71
2022/08/17 02:42:02;;;;;;;5.33;5.03;;;29.10;57.10;;;;;;5054780;28;20541;-70
2022/08/17 02:44:31;;;;;;;6.17;5.70;;;29.10;57.10;;;;;;5044321;28;20493;-71
2022/08/17 02:47:08;;;;;;;5.53;5.23;;;29.10;57.10;;;;;;5054909;28;20476;-70
2022/08/17 02:49:37;;;;;;;6.17;5.77;;;29.10;57.10;;;;;;5054633;28;20474;-71
2022/08/17 02:52:07;;;;;;;5.90;5.50;;;29.10;57.10;;;;;;5054529;28;20508;-74
2022/08/17 02:54:35;;;;;;;6.10;5.70;;;29.10;57.10;;;;;;5054176;28;20512;-71
2022/08/17 02:57:09;;;;;;;5.87;5.47;;;29.10;57.10;;;;;;5054127;28;20903;-70
2022/08/17 02:59:39;;;;;;;6.33;5.77;;;29.10;57.10;;;;;;5055276;28;20438;-71
2022/08/17 03:02:13;;;;;;;5.70;5.40;;;29.10;57.10;;;;;;5049790;28;20547;-73
2022/08/17 03:04:42;;;;;;;5.83;5.43;;;29.10;57.10;;;;;;5058809;28;20498;-71
2022/08/17 03:07:10;;;;;;;6.40;5.90;;;29.10;57.10;;;;;;5045469;28;20754;-70
2022/08/17 03:09:38;;;;;;;5.23;4.93;;;29.00;57.10;;;;;;5052350;28;20835;-75
2022/08/17 03:12:08;;;;;;;5.87;5.47;;;29.00;57.10;;;;;;5057332;28;20465;-70
2022/08/17 03:14:39;;;;;;;6.03;5.67;;;29.00;57.10;;;;;;5063827;28;20479;-71
2022/08/17 03:17:10;;;;;;;6.10;5.70;;;29.00;57.10;;;;;;5053299;28;20537;-71
2022/08/17 03:19:44;;;;;;;6.07;5.67;;;29.00;57.10;;;;;;5053044;28;20906;-72
2022/08/17 03:22:12;;;;;;;6.70;6.20;;;29.00;57.00;;;;;;5052414;28;20464;-71
2022/08/17 03:25:00;;;;;;;5.13;4.83;;;29.00;57.00;;;;;;5054016;28;20550;-71
2022/08/17 03:27:29;;;;;;;5.63;5.23;;;29.00;57.00;;;;;;5038581;28;20511;-70
2022/08/17 03:29:58;;;;;;;6.70;6.20;;;29.00;57.00;;;;;;5053808;28;20509;-71
2022/08/17 03:32:27;;;;;;;8.03;5.87;;;29.00;57.00;;;;;;5052685;28;20471;-70
2022/08/17 03:34:59;;;;;;;5.40;5.00;;;29.00;57.00;;;;;;5068288;28;20584;-70
2022/08/17 03:37:27;;;;;;;5.20;4.90;;;28.90;57.00;;;;;;5056779;28;20514;-70
2022/08/17 03:39:55;;;;;;;5.60;5.30;;;28.90;57.00;;;;;;5062290;28;20489;-73
2022/08/17 03:42:27;;;;;;;5.53;5.13;;;28.90;57.00;;;;;;5046265;28;20936;-70
2022/08/17 03:45:02;;;;;;;6.80;5.10;;;28.90;57.00;;;;;;5043529;28;20573;-70
2022/08/17 03:58:37;;;;;;;5.03;4.73;;;28.90;57.00;;;;;;5038007;28;20485;-70
2022/08/17 04:01:09;;;;;;;6.27;5.90;;;28.90;57.00;;;;;;5046141;28;20491;-70
2022/08/17 04:03:38;;;;;;;5.10;4.80;;;28.90;57.00;;;;;;5048269;28;20576;-71
2022/08/17 04:06:06;;;;;;;6.33;5.93;;;28.90;57.00;;;;;;5042420;28;20460;-71
2022/08/17 04:08:35;;;;;;;6.13;5.77;;;28.90;57.00;;;;;;5045021;28;20501;-71
2022/08/17 04:11:06;;;;;;;6.37;5.97;;;28.90;57.00;;;;;;5051555;28;20569;-70
2022/08/17 04:13:36;;;;;;;6.97;6.43;;;28.90;57.00;;;;;;5047522;28;20557;-70
2022/08/17 04:16:09;;;;;;;5.50;5.20;;;28.90;57.00;;;;;;5052650;28;20871;-73
2022/08/17 04:18:37;;;;;;;6.50;6.10;;;28.80;57.00;;;;;;5064478;28;20509;-73
2022/08/17 04:21:09;;;;;;;5.87;5.47;;;28.80;56.90;;;;;;5051616;28;20455;-73
2022/08/17 04:23:37;;;;;;;5.80;5.40;;;28.80;56.90;;;;;;5053054;28;20488;-73
2022/08/17 04:26:06;;;;;;;6.13;5.73;;;28.80;57.00;;;;;;5053275;28;20488;-70
2022/08/17 04:28:34;;;;;;;6.30;5.90;;;28.80;56.90;;;;;;5048341;28;20476;-70
2022/08/17 04:31:04;;;;;;;5.77;5.37;;;28.80;56.90;;;;;;5037745;28;20472;-71
2022/08/17 04:33:36;;;;;;;6.20;5.80;;;28.80;56.90;;;;;;5063407;28;20444;-71
2022/08/17 04:36:08;;;;;;;5.27;4.93;;;28.80;56.90;;;;;;5060668;28;20475;-71
2022/08/17 04:38:38;;;;;;;5.70;5.30;;;28.80;56.90;;;;;;5060868;28;20480;-77
2022/08/17 04:43:57;;;;;;;5.87;5.47;;;28.80;56.90;;;;;;5045923;28;20479;-70
2022/08/17 04:46:27;;;;;;;5.97;5.57;;;28.80;56.80;;;;;;5050714;28;20486;-72
2022/08/17 04:48:57;;;;;;;5.57;5.27;;;28.80;56.90;;;;;;5045680;28;20464;-71
2022/08/17 04:51:28;;;;;;;5.67;5.37;;;28.80;56.80;;;;;;5037476;28;20899;-70
2022/08/17 04:53:58;;;;;;;5.90;5.50;;;28.80;56.80;;;;;;5050196;28;20459;-71
2022/08/17 04:56:28;;;;;;;5.80;5.30;;;28.80;56.80;;;;;;5052503;28;20973;-71
2022/08/17 04:58:58;;;;;;;5.90;5.50;;;28.80;56.80;;;;;;5048748;28;20489;-73
2022/08/17 05:01:28;;;;;;;5.30;4.90;;;28.80;56.80;;;;;;5046836;28;20504;-74
2022/08/17 05:04:00;;;;;;;5.70;5.40;;;28.80;56.80;;;;;;5042469;28;20977;-71
2022/08/17 05:06:49;;;;;;;5.90;5.50;;;28.80;56.80;;;;;;5054372;28;20447;-71
2022/08/17 05:09:18;;;;;;;5.27;4.77;;;28.80;56.80;;;;;;5050154;28;20996;-71
2022/08/17 05:11:46;;;;;;;5.50;5.20;;;28.80;56.70;;;;;;5040949;28;20571;-73
2022/08/17 05:14:15;;;;;;;5.43;5.00;;;28.80;56.70;;;;;;5049196;28;20542;-71
2022/08/17 05:16:44;;;;;;;5.73;5.37;;;28.80;56.70;;;;;;5041998;28;20571;-71
2022/08/17 05:19:14;;;;;;;5.93;5.53;;;28.80;56.70;;;;;;5047230;28;20535;-70
2022/08/17 05:21:42;;;;;;;5.60;5.20;;;28.80;56.70;;;;;;5045841;28;20482;-70
2022/08/17 05:24:11;;;;;;;6.47;6.00;;;28.80;56.70;;;;;;5045532;28;20460;-70
2022/08/17 05:26:59;;;;;;;5.70;5.40;;;28.80;56.60;;;;;;5049865;28;20950;-72
2022/08/17 05:29:33;;;;;;;6.10;5.70;;;28.80;56.70;;;;;;5045325;28;20448;-70
2022/08/17 05:32:08;;;;;;;5.90;5.50;;;28.80;56.60;;;;;;5062537;28;20500;-73
2022/08/17 05:34:59;;;;;;;4.97;4.67;;;28.80;56.60;;;;;;5048813;28;20510;-71
2022/08/17 05:37:27;;;;;;;5.13;4.83;;;28.80;56.60;;;;;;5041845;28;20489;-70
2022/08/17 05:39:56;;;;;;;6.73;6.27;;;28.80;56.60;;;;;;5044388;28;20484;-72
2022/08/17 05:42:24;;;;;;;6.00;5.60;;;28.80;56.60;;;;;;5036462;28;20457;-71
2022/08/17 05:44:52;;;;;;;6.17;5.77;;;28.80;56.60;;;;;;5038860;28;20484;-71
2022/08/17 05:47:22;;;;;;;6.20;5.80;;;28.80;56.60;;;;;;5046408;28;20636;-70
2022/08/17 05:49:50;;;;;;;5.13;4.90;;;28.80;56.60;;;;;;5052070;28;20547;-71
2022/08/17 05:52:36;;;;;;;5.63;5.27;;;28.80;56.60;;;;;;5051448;28;20476;-71
2022/08/17 05:55:13;;;;;;;4.63;4.33;;;28.80;56.60;;;;;;5051589;28;20979;-70
2022/08/17 05:57:51;;;;;;;7.60;6.13;;;28.80;56.60;;;;;;5051601;28;20505;-70
2022/08/17 06:00:25;;;;;;;5.97;5.57;;;28.80;56.60;;;;;;5046762;28;20444;-71
2022/08/17 06:03:15;;;;;;;5.90;5.50;;;28.90;56.60;;;;;;5051902;28;20468;-71
2022/08/17 06:05:54;;;;;;;5.60;5.20;;;28.90;56.60;;;;;;5037660;28;20557;-72
2022/08/17 06:08:33;;;;;;;5.97;5.57;;;28.90;56.60;;;;;;5044618;28;20505;-70
2022/08/17 06:11:13;;;;;;;6.40;5.90;;;28.90;56.60;;;;;;5050344;28;20468;-71
2022/08/17 06:14:01;;;;;;;6.00;5.60;;;28.90;56.60;;;;;;5046631;28;20571;-70
2022/08/17 06:16:35;;;;;;;6.70;6.20;;;28.90;56.60;;;;;;5040531;28;20481;-70
2022/08/17 06:19:11;;;;;;;6.03;5.53;;;28.90;56.60;;;;;;5053748;28;21062;-71
2022/08/17 06:21:43;;;;;;;6.40;5.93;;;28.90;56.70;;;;;;5047911;28;20957;-71
2022/08/17 06:24:27;;;;;;;5.87;5.47;;;28.90;56.80;;;;;;5036358;28;20525;-71
2022/08/17 06:27:01;;;;;;;5.33;4.93;;;28.90;56.70;;;;;;5053074;28;20506;-74
2022/08/17 06:29:39;;;;;;;6.10;5.60;;;28.90;56.70;;;;;;5045268;28;20473;-71
2022/08/17 06:32:11;;;;;;;5.97;5.57;;;28.90;56.70;;;;;;5048508;28;20572;-71
2022/08/17 06:34:42;;;;;;;5.27;4.97;;;29.00;56.70;;;;;;5040639;28;20442;-71
2022/08/17 06:37:30;;;;;;;5.10;4.80;;;29.00;56.60;;;;;;5050161;28;20456;-71
2022/08/17 06:40:19;;;;;;;6.87;5.90;;;29.00;56.60;;;;;;5052860;28;20521;-71
2022/08/17 06:42:54;;;;;;;6.70;6.20;;;29.00;56.60;;;;;;5056259;28;20560;-71
2022/08/17 06:45:38;;;;;;;6.73;6.17;;;29.00;56.60;;;;;;5053839;28;20455;-71
2022/08/17 06:48:12;;;;;;;5.73;5.37;;;29.00;56.50;;;;;;5055005;28;20528;-70
2022/08/17 06:50:47;;;;;;;5.47;5.07;;;29.00;56.50;;;;;;5051451;28;20458;-72
2022/08/17 06:53:22;;;;;;;6.10;5.50;;;29.00;56.50;;;;;;5046242;28;20981;-73
2022/08/17 06:55:58;;;;;;;5.50;5.20;;;29.00;56.50;;;;;;5049323;28;20499;-71
2022/08/17 06:58:30;;;;;;;4.97;4.67;;;29.10;56.50;;;;;;5052649;28;20540;-71
2022/08/17 07:01:08;;;;;;;5.87;5.33;;;29.10;56.40;;;;;;5046319;28;20461;-70
2022/08/17 07:03:41;;;;;;;5.97;5.60;;;29.10;56.40;;;;;;5051113;28;20477;-70
2022/08/17 07:06:14;;;;;;;5.80;5.40;;;29.10;56.40;;;;;;5053280;28;20481;-70
2022/08/17 07:08:50;;;;;;;6.00;5.50;;;29.10;56.40;;;;;;5049504;28;20554;-71
2022/08/17 07:11:27;;;;;;;7.17;5.17;;;29.10;56.40;;;;;;5048644;28;20835;-72
2022/08/17 07:14:03;;;;;;;5.20;4.90;;;29.10;56.40;;;;;;5055795;28;20537;-71
2022/08/17 07:16:37;;;;;;;6.10;5.53;;;29.10;56.40;;;;;;5056235;28;21030;-70
2022/08/17 07:19:06;;;;;;;5.40;5.00;;;29.10;56.30;;;;;;5048429;28;20514;-70
2022/08/17 07:21:45;;;;;;;5.60;5.10;;;29.10;56.30;;;;;;5046478;28;20484;-73
2022/08/17 07:24:27;;;;;;;5.70;4.90;;;29.10;56.30;;;;;;5052365;28;20482;-71
2022/08/17 07:27:13;;;;;;;5.50;5.00;;;29.20;56.30;;;;;;5056662;28;21053;-72
2022/08/17 07:29:47;;;;;;;5.83;5.43;;;29.20;56.30;;;;;;5053619;28;20478;-70
2022/08/17 07:32:19;;;;;;;5.10;4.80;;;29.20;56.20;;;;;;5045785;28;20545;-70
2022/08/17 07:35:16;;;;;;;5.37;5.00;;;29.20;56.20;;;;;;5050436;28;20523;-71
2022/08/17 07:37:52;;;;;;;5.90;5.30;;;29.30;56.20;;;;;;5025889;28;20788;-76
2022/08/17 07:40:32;;;;;;;5.10;4.80;;;29.30;56.20;;;;;;5048870;28;20535;-70
2022/08/17 07:43:17;;;;;;;4.60;4.30;;;29.30;56.10;;;;;;5050176;28;20941;-69
2022/08/17 07:49:33;;;;;;;6.00;5.60;;;29.30;56.50;;;;;;5039783;28;20482;-75
2022/08/17 07:52:05;;;;;;;5.07;4.67;;;29.30;56.60;;;;;;5045731;28;21013;-72
2022/08/17 07:54:53;;;;;;;5.47;5.07;;;29.40;56.60;;;;;;5057362;28;20461;-73
2022/08/17 07:57:34;;;;;;;5.87;5.37;;;29.40;56.60;;;;;;5039207;28;20801;-72
2022/08/17 08:00:15;;;;;;;5.20;4.90;;;29.40;56.70;;;;;;5053100;28;20456;-73
2022/08/17 08:02:46;;;;;;;5.57;5.03;;;29.40;56.70;;;;;;5048060;28;20492;-73
2022/08/17 08:05:21;;;;;;;4.43;4.23;;;29.40;56.70;;;;;;5045124;28;20989;-72
2022/08/17 08:08:25;;;;;;;5.57;5.07;;;29.40;56.70;;;;;;5046994;28;20927;-77
2022/08/17 08:11:08;;;;;;;5.90;5.40;;;29.40;56.70;;;;;;5045717;28;20440;-75
2022/08/17 08:13:41;;;;;;;5.40;4.90;;;29.40;56.80;;;;;;5047992;28;20520;-74
2022/08/17 08:16:25;;;;;;;5.70;5.20;;;29.40;56.70;;;;;;5051276;28;20467;-72
2022/08/17 08:18:56;;;;;;;5.40;5.10;;;29.50;56.70;;;;;;5050543;28;20445;-77
2022/08/17 08:21:36;;;;;;;5.30;5.00;;;29.50;56.70;;;;;;5050114;28;20553;-77
2022/08/17 08:24:33;;;;;;;5.10;4.80;;;29.50;56.70;;;;;;5048082;28;20483;-77
2022/08/17 08:27:12;;;;;;;5.17;4.77;;;29.50;56.60;;;;;;5027029;28;20565;-74
2022/08/17 08:29:47;;;;;;;5.37;4.93;;;29.60;56.60;;;;;;5049159;28;20466;-76
2022/08/17 08:32:39;;;;;;;4.83;4.53;;;29.60;56.50;;;;;;5035081;28;20452;-74
2022/08/17 08:35:11;;;;;;;5.53;5.13;;;29.60;56.50;;;;;;5045112;28;20463;-73
2022/08/17 08:37:48;;;;;;;5.60;5.30;;;29.60;56.40;;;;;;5045684;28;20455;-74
2022/08/17 08:40:37;;;;;;;4.80;4.50;;;29.60;56.40;;;;;;5047346;28;20442;-73
2022/08/17 08:43:17;;;;;;;4.67;4.27;;;29.60;56.40;;;;;;5043578;28;20448;-75
2022/08/17 08:45:55;;;;;;;4.80;4.50;;;29.70;56.40;;;;;;5049046;28;20918;-75
2022/08/17 08:48:41;;;;;;;4.73;4.43;;;29.70;56.30;;;;;;5044397;28;20450;-74
2022/08/17 08:51:36;;;;;;;5.17;4.87;;;29.70;56.30;;;;;;5040643;28;21450;-76
2022/08/17 08:54:12;;;;;;;4.80;4.50;;;29.70;56.20;;;;;;5056333;28;20897;-72
2022/08/17 08:56:48;;;;;;;4.90;4.50;;;29.80;56.10;;;;;;5048327;28;20493;-75
2022/08/17 08:59:45;;;;;;;5.40;5.00;;;29.80;56.10;;;;;;5049290;28;20961;-75
2022/08/17 09:02:45;;;;;;;4.87;4.57;;;29.80;56.10;;;;;;5040312;28;20872;-75
2022/08/17 09:05:27;;;;;;;4.70;4.40;;;29.80;56.00;;;;;;5051475;28;20530;-77
2022/08/17 09:08:12;;;;;;;5.20;4.77;;;29.80;56.00;;;;;;5049494;28;20463;-78
2022/08/17 09:11:00;;;;;;;4.87;4.47;;;29.80;56.00;;;;;;5053348;28;20509;-76
2022/08/17 09:13:39;;;;;;;4.87;4.57;;;29.90;56.00;;;;;;5042952;28;20461;-74
2022/08/17 09:16:14;;;;;;;4.33;4.10;;;29.90;55.90;;;;;;5041870;28;20537;-74
2022/08/17 09:18:50;;;;;;;4.80;4.50;;;29.90;55.90;;;;;;5041171;28;20990;-72
2022/08/17 09:21:39;;;;;;;4.60;4.30;;;29.90;55.80;;;;;;5043137;28;20451;-72
2022/08/17 09:24:24;;;;;;;4.60;4.30;;;30.00;55.70;;;;;;5041419;28;20470;-80
2022/08/17 09:26:58;;;;;;;5.10;4.77;;;30.00;55.60;;;;;;5042111;28;20437;-72
2022/08/17 09:29:33;;;;;;;5.27;4.97;;;30.00;55.50;;;;;;5042454;28;20504;-72
2022/08/17 09:32:09;;;;;;;6.47;4.80;;;30.00;55.50;;;;;;5042057;28;20461;-72
2022/08/17 09:34:43;;;;;;;4.10;3.80;;;30.00;55.40;;;;;;5066003;28;20463;-72
2022/08/17 09:37:22;;;;;;;5.27;4.87;;;30.00;55.40;;;;;;5043687;28;20498;-72
2022/08/17 09:39:59;;;;;;;4.50;4.20;;;30.00;55.40;;;;;;5038866;28;20458;-73
2022/08/17 09:42:32;;;;;;;4.60;4.40;;;30.00;55.40;;;;;;5053789;28;20448;-71
2022/08/17 09:45:12;;;;;;;5.17;4.87;;;30.00;55.40;;;;;;5035090;28;20509;-72
2022/08/17 09:47:45;;;;;;;5.20;4.90;;;30.00;55.30;;;;;;5041314;28;20835;-68
2022/08/17 09:50:18;;;;;;;5.23;4.83;;;30.00;55.30;;;;;;5043105;28;20442;-79
2022/08/17 09:53:09;;;;;;;4.93;4.63;;;30.00;55.30;;;;;;5044750;28;20454;-75
2022/08/17 09:55:51;;;;;;;5.00;4.70;;;30.00;55.30;;;;;;5058582;28;20877;-75
2022/08/17 09:58:28;;;;;;;5.27;4.97;;;30.00;55.30;;;;;;5054943;28;20501;-75
2022/08/17 10:01:07;;;;;;;4.70;4.40;;;30.00;55.30;;;;;;5052734;28;20943;-75
2022/08/17 10:04:07;;;;;;;5.00;4.70;;;30.00;55.30;;;;;;5055261;28;20489;-75
2022/08/17 10:06:47;;;;;;;6.43;6.03;;;30.00;55.30;;;;;;5042278;28;20896;-76
2022/08/17 10:09:26;;;;;;;5.67;5.27;;;30.00;55.30;;;;;;5051556;28;20551;-76
2022/08/17 10:12:19;;;;;;;5.53;5.13;;;30.10;55.30;;;;;;5039812;28;20564;-78
2022/08/17 10:15:03;;;;;;;6.40;5.47;;;30.10;55.30;;;;;;5051950;28;20499;-76
2022/08/17 10:17:45;;;;;;;6.73;4.93;;;30.10;55.50;;;;;;5048858;28;20495;-76
2022/08/17 10:20:17;;;;;;;5.07;4.70;;;30.10;55.60;;;;;;5049852;28;20464;-72
2022/08/17 10:28:32;;;;;;;5.63;5.10;;;30.20;55.60;;;;;;5054691;28;20512;-72
2022/08/17 10:31:06;;;;;;;4.87;4.47;;;30.20;55.50;;;;;;5050987;28;20497;-72
2022/08/17 10:34:21;;;;;;;6.20;5.60;;;30.20;55.40;;;;;;5045915;28;20501;-72
2022/08/17 10:36:59;;;;;;;8.13;5.77;;;30.20;55.30;;;;;;5045408;28;20540;-72
2022/08/17 10:39:36;;;;;;;5.20;4.70;;;30.20;55.20;;;;;;5046857;28;20449;-71
2022/08/17 10:42:25;;;;;;;5.10;4.80;;;30.10;55.20;;;;;;5047585;28;20484;-71
2022/08/17 10:45:06;;;;;;;5.07;4.60;;;30.10;55.20;;;;;;5042520;28;20548;-71
2022/08/17 10:47:58;;;;;;;5.70;5.30;;;30.20;55.10;;;;;;5045679;28;20871;-71
2022/08/17 10:51:07;;;;;;;5.50;5.10;;;30.10;55.10;;;;;;5049263;28;20504;-71
2022/08/17 10:54:00;;;;;;;6.93;4.50;;;30.20;55.10;;;;;;5038616;28;20524;-77
2022/08/17 10:56:45;;;;;;;4.90;4.60;;;30.30;55.20;;;;;;5053723;28;20997;-77
2022/08/17 10:59:50;;;;;;;5.50;5.10;;;30.30;55.10;;;;;;5048781;28;20958;-76
2022/08/17 11:02:24;;;;;;;5.80;5.23;;;30.40;55.10;;;;;;5040846;28;20539;-79
2022/08/17 11:05:27;;;;;;;5.10;4.70;;;30.40;55.30;;;;;;5037731;28;20458;-77
2022/08/17 11:08:41;;;;;;;4.93;4.43;;;30.50;55.20;;;;;;5038560;28;20789;-77
2022/08/17 11:11:22;;;;;;;4.67;4.37;;;30.60;55.20;;;;;;5050070;28;20858;-78
2022/08/17 11:14:10;;;;;;;5.00;4.63;;;30.60;55.20;;;;;;5044377;28;20506;-77
2022/08/17 11:16:50;;;;;;;5.20;4.80;;;30.70;55.10;;;;;;5043726;28;20922;-78
2022/08/17 11:19:45;;;;;;;4.97;4.63;;;30.70;55.00;;;;;;5036722;28;20459;-78
2022/08/17 11:22:59;;;;;;;5.30;4.80;;;30.80;55.00;;;;;;5047109;28;20452;-79
2022/08/17 11:25:39;;;;;;;5.13;4.73;;;30.80;55.00;;;;;;5036775;28;20513;-79
2022/08/17 11:28:14;;;;;;;4.20;3.90;;;30.80;55.00;;;;;;5043016;28;20506;-79
2022/08/17 11:30:51;;;;;;;6.33;4.33;;;30.90;55.00;;;;;;5047245;28;20547;-76
2022/08/17 11:34:00;;;;;;;4.60;4.40;;;30.90;54.90;;;;;;5056708;28;20500;-77
2022/08/17 11:37:06;;;;;;;4.67;4.20;;;31.00;54.80;;;;;;5054653;28;20522;-80
2022/08/17 11:39:53;;;;;;;5.53;4.30;;;31.00;54.80;;;;;;5050863;28;20910;-80
2022/08/17 11:42:33;;;;;;;4.20;3.90;;;31.10;54.80;;;;;;5054993;28;20459;-80
2022/08/17 11:45:16;;;;;;;4.70;4.40;;;31.10;54.80;;;;;;5042030;28;20496;-81
2022/08/17 11:54:11;;;;;;;4.40;4.10;;;31.50;54.10;;;;;;5047666;28;20440;-78
2022/08/17 11:57:01;;;;;;;4.33;4.10;;;31.50;54.10;;;;;;5050722;28;20457;-77
2022/08/17 11:59:58;;;;;;;4.60;4.03;;;31.40;54.20;;;;;;5049712;28;20450;-73
2022/08/17 12:02:42;;;;;;;4.93;4.53;;;31.40;54.30;;;;;;5039085;28;20542;-77
2022/08/17 12:05:32;;;;;;;4.33;4.13;;;31.30;54.50;;;;;;5042203;28;20963;-75
2022/08/17 12:08:13;;;;;;;4.50;4.30;;;31.40;54.60;;;;;;5057252;28;20448;-76
2022/08/17 12:10:59;;;;;;;4.50;4.20;;;31.40;54.70;;;;;;5053637;28;20496;-78
2022/08/17 12:13:31;;;;;;;4.23;3.90;;;31.40;55.20;;;;;;5049498;28;20962;-76
2022/08/17 12:16:08;;;;;;;4.17;3.87;;;31.50;55.30;;;;;;5042484;28;20457;-78
2022/08/17 12:18:40;;;;;;;4.20;3.90;;;31.80;54.80;;;;;;5055148;28;20544;-75
2022/08/17 12:21:29;;;;;;;4.50;4.20;;;32.10;54.50;;;;;;5058063;28;20464;-75
2022/08/17 12:24:05;;;;;;;4.70;4.40;;;32.40;54.10;;;;;;5054788;28;20516;-77
2022/08/17 12:26:35;;;;;;;4.40;4.10;;;32.40;54.40;;;;;;5042583;28;20456;-78
2022/08/17 12:29:07;;;;;;;4.60;4.30;;;32.30;54.60;;;;;;5048318;28;20945;-76
2022/08/17 12:31:47;;;;;;;4.60;4.03;;;32.20;55.10;;;;;;5047957;28;20461;-76
2022/08/17 12:34:19;;;;;;;4.97;4.67;;;32.00;55.70;;;;;;5051145;28;20526;-79
2022/08/17 12:36:50;;;;;;;4.20;3.90;;;31.90;55.80;;;;;;5049067;28;20475;-75
2022/08/17 12:39:22;;;;;;;3.80;3.60;;;32.20;55.50;;;;;;5053881;28;20443;-76
2022/08/17 12:41:55;;;;;;;4.43;4.03;;;32.40;55.30;;;;;;5049040;28;20443;-78
2022/08/17 12:44:31;;;;;;;4.40;4.17;;;32.60;55.10;;;;;;5039003;28;20442;-77
2022/08/17 12:47:05;;;;;;;4.50;4.20;;;32.70;55.00;;;;;;5056560;28;20449;-76
2022/08/17 12:49:36;;;;;;;4.10;3.80;;;32.70;55.20;;;;;;5053205;28;20481;-78
2022/08/17 12:52:12;;;;;;;4.57;4.23;;;32.70;55.30;;;;;;5048021;28;20507;-77
2022/08/17 12:54:59;;;;;;;4.07;3.77;;;32.70;55.40;;;;;;5047387;28;20484;-77
2022/08/17 12:57:31;;;;;;;4.37;4.17;;;32.60;55.60;;;;;;5048288;28;20499;-78
2022/08/17 13:00:08;;;;;;;3.43;3.23;;;32.50;55.80;;;;;;5042227;28;20462;-77
2022/08/17 13:02:44;;;;;;;3.80;3.60;;;32.60;55.80;;;;;;5044131;28;20929;-76
2022/08/17 13:05:26;;;;;;;3.77;3.57;;;32.70;55.80;;;;;;5054114;28;20454;-76
2022/08/17 13:07:56;;;;;;;3.50;3.30;;;32.80;55.90;;;;;;5081965;28;20495;-78
2022/08/17 13:10:30;;;;;;;6.20;5.70;;;32.80;55.80;;;;;;5047881;28;20457;-78
2022/08/17 13:13:03;;;;;;;4.60;4.30;;;32.50;54.20;;;;;;5070025;28;20474;-79
2022/08/17 13:15:37;;;;;;;5.30;4.90;;;31.80;54.00;;;;;;5049096;28;20478;-76
2022/08/17 13:18:35;;;;;;;5.60;5.20;;;31.30;53.70;;;;;;5056923;28;20931;-76
2022/08/17 13:21:07;;;;;;;5.07;4.77;;;31.00;54.30;;;;;;5049514;28;21002;-76
2022/08/17 13:23:35;;;;;;;5.17;4.80;;;30.90;54.60;;;;;;5042901;28;20474;-72
2022/08/17 13:26:15;;;;;;;4.97;4.67;;;30.80;54.50;;;;;;5050469;28;20512;-75
2022/08/17 13:28:48;;;;;;;4.63;4.30;;;30.90;53.60;;;;;;5043484;28;20490;-79
2022/08/17 13:31:33;;;;;;;5.73;5.23;;;31.00;53.80;;;;;;5047605;28;20476;-75
2022/08/17 13:34:33;;;;;;;5.10;4.63;;;30.90;53.90;;;;;;5050495;28;20447;-77
2022/08/17 13:37:32;;;;;;;5.50;5.10;;;30.90;53.90;;;;;;5082047;28;20805;-72
2022/08/17 13:40:04;;;;;;;5.97;5.57;;;31.00;53.70;;;;;;5046426;28;20457;-71
2022/08/17 13:42:37;;;;;;;6.17;5.60;;;31.00;53.80;;;;;;5051247;28;20443;-73
2022/08/17 13:45:45;;;;;;;5.30;4.90;;;31.10;53.30;;;;;;5079546;28;20453;-73
2022/08/17 13:48:27;;;;;;;5.80;5.27;;;31.10;53.10;;;;;;5042990;28;20542;-74
2022/08/17 13:51:23;;;;;;;4.80;4.50;;;31.10;53.10;;;;;;5049665;28;20906;-72
2022/08/17 13:54:23;;;;;;;5.87;5.47;;;31.10;52.80;;;;;;5050445;28;20936;-72
2022/08/17 13:57:17;;;;;;;5.60;5.30;;;31.00;53.10;;;;;;5049339;28;20502;-72
2022/08/17 13:59:50;;;;;;;5.20;4.80;;;31.00;53.30;;;;;;5033779;28;20875;-74
2022/08/17 14:02:21;;;;;;;5.17;4.87;;;30.80;53.70;;;;;;5040315;28;20483;-74
2022/08/17 14:04:49;;;;;;;4.80;4.50;;;30.70;53.70;;;;;;5041123;28;20926;-75
2022/08/17 14:07:35;;;;;;;5.57;5.13;;;30.60;53.90;;;;;;5042872;28;20529;-75
2022/08/17 14:10:09;;;;;;;5.53;5.13;;;30.70;53.40;;;;;;5041977;28;20494;-73